sensor_id;sensor_type;location;lat;lon;timestamp;P1;P2;P0
57411;PMS5003;43247;52.828;-8.980;2023-02-04T00:00:31;10;10;
57411;PMS5003;43247;52.828;-8.980;2023-02-04T00:01:30;10;10;
57411;PMS5003;43247;52.828;-8.980;2023-02-04T00:02:30;10;10;
57411;PMS5003;43247;52.828;-8.980;2023-02-04T00:03:31;11;11;
57411;PMS5003;43247;52.828;-8.980;2023-02-04T00:04:31;11;9;
57411;PMS5003;43247;52.828;-8.980;2023-02-04T00:05:31;10;9;
57411;PMS5003;43247;52.828;-8.980;2023-02-04T00:06:31;9;9;
57411;PMS5003;43247;52.828;-8.980;2023-02-04T00:07:31;13;10;
57411;PMS5003;43247;52.828;-8.980;2023-02-04T00:08:32;12;9;
57411;PMS5003;43247;52.828;-8.980;2023-02-04T00:09:32;10;9;
57411;PMS5003;43247;52.828;-8.980;2023-02-04T00:10:32;9;9;
57411;PMS5003;43247;52.828;-8.980;2023-02-04T00:11:32;13;10;
57411;PMS5003;43247;52.828;-8.980;2023-02-04T00:12:32;7;7;
57411;PMS5003;43247;52.828;-8.980;2023-02-04T00:13:33;11;8;
57411;PMS5003;43247;52.828;-8.980;2023-02-04T00:14:33;10;8;
57411;PMS5003;43247;52.828;-8.980;2023-02-04T00:15:33;8;8;
57411;PMS5003;43247;52.828;-8.980;2023-02-04T00:16:34;7;7;
57411;PMS5003;43247;52.828;-8.980;2023-02-04T00:17:34;8;8;
57411;PMS5003;43247;52.828;-8.980;2023-02-04T00:18:34;9;7;
57411;PMS5003;43247;52.828;-8.980;2023-02-04T00:19:34;9;9;
57411;PMS5003;43247;52.828;-8.980;2023-02-04T00:20:34;8;8;
57411;PMS5003;43247;52.828;-8.980;2023-02-04T00:21:35;8;8;
57411;PMS5003;43247;52.828;-8.980;2023-02-04T00:22:35;7;7;
57411;PMS5003;43247;52.828;-8.980;2023-02-04T00:23:35;6;6;
57411;PMS5003;43247;52.828;-8.980;2023-02-04T00:24:36;7;6;
57411;PMS5003;43247;52.828;-8.980;2023-02-04T00:25:35;8;8;
57411;PMS5003;43247;52.828;-8.980;2023-02-04T00:26:36;9;8;
57411;PMS5003;43247;52.828;-8.980;2023-02-04T00:27:36;8;6;
57411;PMS5003;43247;52.828;-8.980;2023-02-04T00:28:36;6;6;
57411;PMS5003;43247;52.828;-8.980;2023-02-04T00:29:36;7;7;
57411;PMS5003;43247;52.828;-8.980;2023-02-04T00:30:36;7;7;
57411;PMS5003;43247;52.828;-8.980;2023-02-04T00:31:36;5;5;
57411;PMS5003;43247;52.828;-8.980;2023-02-04T00:32:37;9;8;
57411;PMS5003;43247;52.828;-8.980;2023-02-04T00:33:37;5;5;
57411;PMS5003;43247;52.828;-8.980;2023-02-04T00:34:37;7;7;
57411;PMS5003;43247;52.828;-8.980;2023-02-04T00:35:37;7;7;
57411;PMS5003;43247;52.828;-8.980;2023-02-04T00:36:37;7;6;
57411;PMS5003;43247;52.828;-8.980;2023-02-04T00:37:37;7;7;
57411;PMS5003;43247;52.828;-8.980;2023-02-04T00:38:38;7;6;
57411;PMS5003;43247;52.828;-8.980;2023-02-04T00:39:38;5;5;
57411;PMS5003;43247;52.828;-8.980;2023-02-04T00:40:38;7;7;
57411;PMS5003;43247;52.828;-8.980;2023-02-04T00:41:38;7;7;
57411;PMS5003;43247;52.828;-8.980;2023-02-04T00:42:38;7;7;
57411;PMS5003;43247;52.828;-8.980;2023-02-04T00:43:39;6;6;
57411;PMS5003;43247;52.828;-8.980;2023-02-04T00:44:39;4;4;
57411;PMS5003;43247;52.828;-8.980;2023-02-04T00:45:39;6;6;
57411;PMS5003;43247;52.828;-8.980;2023-02-04T00:46:39;8;6;
57411;PMS5003;43247;52.828;-8.980;2023-02-04T00:47:39;5;5;
57411;PMS5003;43247;52.828;-8.980;2023-02-04T00:48:39;4;4;
57411;PMS5003;43247;52.828;-8.980;2023-02-04T00:49:40;6;6;
57411;PMS5003;43247;52.828;-8.980;2023-02-04T00:50:40;5;5;
57411;PMS5003;43247;52.828;-8.980;2023-02-04T00:51:40;5;5;
57411;PMS5003;43247;52.828;-8.980;2023-02-04T00:52:40;4;4;
57411;PMS5003;43247;52.828;-8.980;2023-02-04T00:53:40;5;4;
57411;PMS5003;43247;52.828;-8.980;2023-02-04T00:54:41;6;6;
57411;PMS5003;43247;52.828;-8.980;2023-02-04T00:55:41;6;6;
57411;PMS5003;43247;52.828;-8.980;2023-02-04T00:56:41;7;5;
57411;PMS5003;43247;52.828;-8.980;2023-02-04T00:57:41;6;6;
57411;PMS5003;43247;52.828;-8.980;2023-02-04T00:58:41;8;6;
57411;PMS5003;43247;52.828;-8.980;2023-02-04T00:59:41;5;5;
57411;PMS5003;43247;52.828;-8.980;2023-02-04T01:00:42;4;4;
57411;PMS5003;43247;52.828;-8.980;2023-02-04T01:01:42;7;7;
57411;PMS5003;43247;52.828;-8.980;2023-02-04T01:02:43;6;4;
57411;PMS5003;43247;52.828;-8.980;2023-02-04T01:03:43;5;5;
57411;PMS5003;43247;52.828;-8.980;2023-02-04T01:04:43;5;5;
57411;PMS5003;43247;52.828;-8.980;2023-02-04T01:05:43;6;5;
57411;PMS5003;43247;52.828;-8.980;2023-02-04T01:06:43;4;4;
57411;PMS5003;43247;52.828;-8.980;2023-02-04T01:07:43;4;4;
57411;PMS5003;43247;52.828;-8.980;2023-02-04T01:08:44;5;5;
57411;PMS5003;43247;52.828;-8.980;2023-02-04T01:09:44;4;4;
57411;PMS5003;43247;52.828;-8.980;2023-02-04T01:10:44;5;5;
57411;PMS5003;43247;52.828;-8.980;2023-02-04T01:11:44;5;5;
57411;PMS5003;43247;52.828;-8.980;2023-02-04T01:12:44;5;4;
57411;PMS5003;43247;52.828;-8.980;2023-02-04T01:13:45;5;4;
57411;PMS5003;43247;52.828;-8.980;2023-02-04T01:14:45;4;4;
57411;PMS5003;43247;52.828;-8.980;2023-02-04T01:15:45;3;3;
57411;PMS5003;43247;52.828;-8.980;2023-02-04T01:16:45;5;5;
57411;PMS5003;43247;52.828;-8.980;2023-02-04T01:17:45;6;4;
57411;PMS5003;43247;52.828;-8.980;2023-02-04T01:18:46;3;3;
57411;PMS5003;43247;52.828;-8.980;2023-02-04T01:19:46;3;3;
57411;PMS5003;43247;52.828;-8.980;2023-02-04T01:20:46;4;4;
57411;PMS5003;43247;52.828;-8.980;2023-02-04T01:21:46;4;3;
57411;PMS5003;43247;52.828;-8.980;2023-02-04T01:22:46;4;4;
57411;PMS5003;43247;52.828;-8.980;2023-02-04T01:23:46;5;4;
57411;PMS5003;43247;52.828;-8.980;2023-02-04T01:24:47;5;3;
57411;PMS5003;43247;52.828;-8.980;2023-02-04T01:25:47;6;5;
57411;PMS5003;43247;52.828;-8.980;2023-02-04T01:26:47;3;3;
57411;PMS5003;43247;52.828;-8.980;2023-02-04T01:27:47;3;3;
57411;PMS5003;43247;52.828;-8.980;2023-02-04T01:28:48;4;4;
57411;PMS5003;43247;52.828;-8.980;2023-02-04T01:29:48;6;4;
57411;PMS5003;43247;52.828;-8.980;2023-02-04T01:30:49;4;4;
57411;PMS5003;43247;52.828;-8.980;2023-02-04T01:31:49;4;4;
57411;PMS5003;43247;52.828;-8.980;2023-02-04T01:32:49;5;5;
57411;PMS5003;43247;52.828;-8.980;2023-02-04T01:33:49;8;5;
57411;PMS5003;43247;52.828;-8.980;2023-02-04T01:34:50;5;4;
57411;PMS5003;43247;52.828;-8.980;2023-02-04T01:35:50;8;7;
57411;PMS5003;43247;52.828;-8.980;2023-02-04T01:36:50;5;4;
57411;PMS5003;43247;52.828;-8.980;2023-02-04T01:37:51;3;3;
57411;PMS5003;43247;52.828;-8.980;2023-02-04T01:38:51;4;3;
57411;PMS5003;43247;52.828;-8.980;2023-02-04T01:39:51;2;2;
57411;PMS5003;43247;52.828;-8.980;2023-02-04T01:40:51;3;2;
57411;PMS5003;43247;52.828;-8.980;2023-02-04T01:41:51;5;4;
57411;PMS5003;43247;52.828;-8.980;2023-02-04T01:42:52;2;2;
57411;PMS5003;43247;52.828;-8.980;2023-02-04T01:43:52;4;3;
57411;PMS5003;43247;52.828;-8.980;2023-02-04T01:44:52;3;3;
57411;PMS5003;43247;52.828;-8.980;2023-02-04T01:45:52;3;3;
57411;PMS5003;43247;52.828;-8.980;2023-02-04T01:46:52;3;3;
57411;PMS5003;43247;52.828;-8.980;2023-02-04T01:47:52;4;2;
57411;PMS5003;43247;52.828;-8.980;2023-02-04T01:48:53;3;3;
57411;PMS5003;43247;52.828;-8.980;2023-02-04T01:49:53;3;3;
57411;PMS5003;43247;52.828;-8.980;2023-02-04T01:50:55;3;3;
57411;PMS5003;43247;52.828;-8.980;2023-02-04T01:51:53;3;3;
57411;PMS5003;43247;52.828;-8.980;2023-02-04T01:52:53;4;4;
57411;PMS5003;43247;52.828;-8.980;2023-02-04T01:53:54;2;2;
57411;PMS5003;43247;52.828;-8.980;2023-02-04T01:54:54;3;3;
57411;PMS5003;43247;52.828;-8.980;2023-02-04T01:55:54;3;3;
57411;PMS5003;43247;52.828;-8.980;2023-02-04T01:56:54;4;4;
57411;PMS5003;43247;52.828;-8.980;2023-02-04T01:57:54;3;3;
57411;PMS5003;43247;52.828;-8.980;2023-02-04T01:58:55;3;3;
57411;PMS5003;43247;52.828;-8.980;2023-02-04T01:59:55;4;4;
57411;PMS5003;43247;52.828;-8.980;2023-02-04T02:00:55;3;3;
57411;PMS5003;43247;52.828;-8.980;2023-02-04T02:01:55;2;2;
57411;PMS5003;43247;52.828;-8.980;2023-02-04T02:02:56;2;2;
57411;PMS5003;43247;52.828;-8.980;2023-02-04T02:03:55;4;4;
57411;PMS5003;43247;52.828;-8.980;2023-02-04T02:04:56;2;2;
57411;PMS5003;43247;52.828;-8.980;2023-02-04T02:05:56;4;3;
57411;PMS5003;43247;52.828;-8.980;2023-02-04T02:06:57;5;4;
57411;PMS5003;43247;52.828;-8.980;2023-02-04T02:07:56;6;4;
57411;PMS5003;43247;52.828;-8.980;2023-02-04T02:08:56;3;3;
57411;PMS5003;43247;52.828;-8.980;2023-02-04T02:09:56;4;4;
57411;PMS5003;43247;52.828;-8.980;2023-02-04T02:10:57;4;4;
57411;PMS5003;43247;52.828;-8.980;2023-02-04T02:11:57;3;3;
57411;PMS5003;43247;52.828;-8.980;2023-02-04T02:12:57;5;5;
57411;PMS5003;43247;52.828;-8.980;2023-02-04T02:13:57;5;3;
57411;PMS5003;43247;52.828;-8.980;2023-02-04T02:14:57;4;3;
57411;PMS5003;43247;52.828;-8.980;2023-02-04T02:15:58;3;3;
57411;PMS5003;43247;52.828;-8.980;2023-02-04T02:16:58;3;3;
57411;PMS5003;43247;52.828;-8.980;2023-02-04T02:17:58;3;3;
57411;PMS5003;43247;52.828;-8.980;2023-02-04T02:18:58;2;2;
57411;PMS5003;43247;52.828;-8.980;2023-02-04T02:19:58;6;4;
57411;PMS5003;43247;52.828;-8.980;2023-02-04T02:20:59;4;3;
57411;PMS5003;43247;52.828;-8.980;2023-02-04T02:22:00;3;3;
57411;PMS5003;43247;52.828;-8.980;2023-02-04T02:23:01;2;1;
57411;PMS5003;43247;52.828;-8.980;2023-02-04T02:24:01;6;6;
57411;PMS5003;43247;52.828;-8.980;2023-02-04T02:25:00;3;3;
57411;PMS5003;43247;52.828;-8.980;2023-02-04T02:26:00;5;5;
57411;PMS5003;43247;52.828;-8.980;2023-02-04T02:27:01;3;3;
57411;PMS5003;43247;52.828;-8.980;2023-02-04T02:28:00;4;3;
57411;PMS5003;43247;52.828;-8.980;2023-02-04T02:29:00;4;3;
57411;PMS5003;43247;52.828;-8.980;2023-02-04T02:30:01;4;4;
57411;PMS5003;43247;52.828;-8.980;2023-02-04T02:31:01;3;3;
57411;PMS5003;43247;52.828;-8.980;2023-02-04T02:32:01;2;2;
57411;PMS5003;43247;52.828;-8.980;2023-02-04T02:33:01;2;2;
57411;PMS5003;43247;52.828;-8.980;2023-02-04T02:34:01;5;3;
57411;PMS5003;43247;52.828;-8.980;2023-02-04T02:35:02;6;6;
57411;PMS5003;43247;52.828;-8.980;2023-02-04T02:36:02;2;2;
57411;PMS5003;43247;52.828;-8.980;2023-02-04T02:37:03;2;2;
57411;PMS5003;43247;52.828;-8.980;2023-02-04T02:38:03;4;4;
57411;PMS5003;43247;52.828;-8.980;2023-02-04T02:39:03;3;3;
57411;PMS5003;43247;52.828;-8.980;2023-02-04T02:40:03;3;3;
57411;PMS5003;43247;52.828;-8.980;2023-02-04T02:41:03;3;3;
57411;PMS5003;43247;52.828;-8.980;2023-02-04T02:42:03;2;1;
57411;PMS5003;43247;52.828;-8.980;2023-02-04T02:43:04;1;1;
57411;PMS5003;43247;52.828;-8.980;2023-02-04T02:44:04;3;3;
57411;PMS5003;43247;52.828;-8.980;2023-02-04T02:45:05;3;3;
57411;PMS5003;43247;52.828;-8.980;2023-02-04T02:46:04;3;3;
57411;PMS5003;43247;52.828;-8.980;2023-02-04T02:47:04;2;2;
57411;PMS5003;43247;52.828;-8.980;2023-02-04T02:48:04;3;3;
57411;PMS5003;43247;52.828;-8.980;2023-02-04T02:49:05;2;2;
57411;PMS5003;43247;52.828;-8.980;2023-02-04T02:50:05;3;3;
57411;PMS5003;43247;52.828;-8.980;2023-02-04T02:51:05;3;3;
57411;PMS5003;43247;52.828;-8.980;2023-02-04T02:52:05;3;3;
57411;PMS5003;43247;52.828;-8.980;2023-02-04T02:53:09;4;4;
57411;PMS5003;43247;52.828;-8.980;2023-02-04T02:54:07;3;3;
57411;PMS5003;43247;52.828;-8.980;2023-02-04T02:55:10;4;4;
57411;PMS5003;43247;52.828;-8.980;2023-02-04T02:56:07;2;2;
57411;PMS5003;43247;52.828;-8.980;2023-02-04T02:57:09;3;3;
57411;PMS5003;43247;52.828;-8.980;2023-02-04T02:58:09;3;3;
57411;PMS5003;43247;52.828;-8.980;2023-02-04T03:00:12;3;3;
57411;PMS5003;43247;52.828;-8.980;2023-02-04T03:01:08;4;4;
57411;PMS5003;43247;52.828;-8.980;2023-02-04T03:02:08;3;2;
57411;PMS5003;43247;52.828;-8.980;2023-02-04T03:03:09;3;3;
57411;PMS5003;43247;52.828;-8.980;2023-02-04T03:04:09;3;3;
57411;PMS5003;43247;52.828;-8.980;2023-02-04T03:05:09;3;3;
57411;PMS5003;43247;52.828;-8.980;2023-02-04T03:06:10;2;2;
57411;PMS5003;43247;52.828;-8.980;2023-02-04T03:07:09;2;2;
57411;PMS5003;43247;52.828;-8.980;2023-02-04T03:08:09;3;3;
57411;PMS5003;43247;52.828;-8.980;2023-02-04T03:09:09;3;3;
57411;PMS5003;43247;52.828;-8.980;2023-02-04T03:10:10;4;4;
57411;PMS5003;43247;52.828;-8.980;2023-02-04T03:11:10;3;3;
57411;PMS5003;43247;52.828;-8.980;2023-02-04T03:12:10;2;2;
57411;PMS5003;43247;52.828;-8.980;2023-02-04T03:13:10;5;4;
57411;PMS5003;43247;52.828;-8.980;2023-02-04T03:14:11;3;3;
57411;PMS5003;43247;52.828;-8.980;2023-02-04T03:15:11;1;1;
57411;PMS5003;43247;52.828;-8.980;2023-02-04T03:16:11;2;2;
57411;PMS5003;43247;52.828;-8.980;2023-02-04T03:17:11;3;3;
57411;PMS5003;43247;52.828;-8.980;2023-02-04T03:18:12;3;3;
57411;PMS5003;43247;52.828;-8.980;2023-02-04T03:19:12;3;3;
57411;PMS5003;43247;52.828;-8.980;2023-02-04T03:20:12;3;3;
57411;PMS5003;43247;52.828;-8.980;2023-02-04T03:21:12;3;3;
57411;PMS5003;43247;52.828;-8.980;2023-02-04T03:22:12;3;3;
57411;PMS5003;43247;52.828;-8.980;2023-02-04T03:23:13;5;2;
57411;PMS5003;43247;52.828;-8.980;2023-02-04T03:24:13;3;3;
57411;PMS5003;43247;52.828;-8.980;2023-02-04T03:25:13;3;3;
57411;PMS5003;43247;52.828;-8.980;2023-02-04T03:26:13;2;2;
57411;PMS5003;43247;52.828;-8.980;2023-02-04T03:27:13;2;2;
57411;PMS5003;43247;52.828;-8.980;2023-02-04T03:28:13;2;2;
57411;PMS5003;43247;52.828;-8.980;2023-02-04T03:29:14;4;2;
57411;PMS5003;43247;52.828;-8.980;2023-02-04T03:30:14;6;6;
57411;PMS5003;43247;52.828;-8.980;2023-02-04T03:31:15;2;2;
57411;PMS5003;43247;52.828;-8.980;2023-02-04T03:32:15;5;3;
57411;PMS5003;43247;52.828;-8.980;2023-02-04T03:33:15;3;3;
57411;PMS5003;43247;52.828;-8.980;2023-02-04T03:34:15;3;2;
57411;PMS5003;43247;52.828;-8.980;2023-02-04T03:35:15;1;1;
57411;PMS5003;43247;52.828;-8.980;2023-02-04T03:36:15;2;2;
57411;PMS5003;43247;52.828;-8.980;2023-02-04T03:37:16;2;2;
57411;PMS5003;43247;52.828;-8.980;2023-02-04T03:38:16;1;1;
57411;PMS5003;43247;52.828;-8.980;2023-02-04T03:39:16;3;2;
57411;PMS5003;43247;52.828;-8.980;2023-02-04T03:40:16;0;0;
57411;PMS5003;43247;52.828;-8.980;2023-02-04T03:41:16;1;1;
57411;PMS5003;43247;52.828;-8.980;2023-02-04T03:42:16;3;3;
57411;PMS5003;43247;52.828;-8.980;2023-02-04T03:43:17;4;3;
57411;PMS5003;43247;52.828;-8.980;2023-02-04T03:44:17;2;2;
57411;PMS5003;43247;52.828;-8.980;2023-02-04T03:45:17;3;2;
57411;PMS5003;43247;52.828;-8.980;2023-02-04T03:46:17;3;3;
57411;PMS5003;43247;52.828;-8.980;2023-02-04T03:47:17;3;3;
57411;PMS5003;43247;52.828;-8.980;2023-02-04T03:48:18;3;2;
57411;PMS5003;43247;52.828;-8.980;2023-02-04T03:49:18;2;2;
57411;PMS5003;43247;52.828;-8.980;2023-02-04T03:50:18;2;2;
57411;PMS5003;43247;52.828;-8.980;2023-02-04T03:51:18;2;2;
57411;PMS5003;43247;52.828;-8.980;2023-02-04T03:52:18;2;2;
57411;PMS5003;43247;52.828;-8.980;2023-02-04T03:53:18;4;3;
57411;PMS5003;43247;52.828;-8.980;2023-02-04T03:54:19;3;3;
57411;PMS5003;43247;52.828;-8.980;2023-02-04T03:55:19;2;2;
57411;PMS5003;43247;52.828;-8.980;2023-02-04T03:56:19;2;2;
57411;PMS5003;43247;52.828;-8.980;2023-02-04T03:57:19;3;3;
57411;PMS5003;43247;52.828;-8.980;2023-02-04T03:58:19;2;2;
57411;PMS5003;43247;52.828;-8.980;2023-02-04T03:59:20;3;3;
57411;PMS5003;43247;52.828;-8.980;2023-02-04T04:00:20;4;4;
57411;PMS5003;43247;52.828;-8.980;2023-02-04T04:01:20;2;2;
57411;PMS5003;43247;52.828;-8.980;2023-02-04T04:02:20;2;2;
57411;PMS5003;43247;52.828;-8.980;2023-02-04T04:03:20;5;2;
57411;PMS5003;43247;52.828;-8.980;2023-02-04T04:04:20;4;4;
57411;PMS5003;43247;52.828;-8.980;2023-02-04T04:05:21;7;4;
57411;PMS5003;43247;52.828;-8.980;2023-02-04T04:06:21;2;2;
57411;PMS5003;43247;52.828;-8.980;2023-02-04T04:07:21;2;2;
57411;PMS5003;43247;52.828;-8.980;2023-02-04T04:08:21;3;3;
57411;PMS5003;43247;52.828;-8.980;2023-02-04T04:09:21;3;3;
57411;PMS5003;43247;52.828;-8.980;2023-02-04T04:10:22;2;2;
57411;PMS5003;43247;52.828;-8.980;2023-02-04T04:11:22;2;2;
57411;PMS5003;43247;52.828;-8.980;2023-02-04T04:12:22;4;4;
57411;PMS5003;43247;52.828;-8.980;2023-02-04T04:13:22;2;2;
57411;PMS5003;43247;52.828;-8.980;2023-02-04T04:14:22;2;2;
57411;PMS5003;43247;52.828;-8.980;2023-02-04T04:15:23;2;2;
57411;PMS5003;43247;52.828;-8.980;2023-02-04T04:16:23;3;3;
57411;PMS5003;43247;52.828;-8.980;2023-02-04T04:17:23;1;1;
57411;PMS5003;43247;52.828;-8.980;2023-02-04T04:18:23;2;2;
57411;PMS5003;43247;52.828;-8.980;2023-02-04T04:19:24;2;2;
57411;PMS5003;43247;52.828;-8.980;2023-02-04T04:20:24;2;2;
57411;PMS5003;43247;52.828;-8.980;2023-02-04T04:21:24;2;2;
57411;PMS5003;43247;52.828;-8.980;2023-02-04T04:22:24;2;2;
57411;PMS5003;43247;52.828;-8.980;2023-02-04T04:23:24;2;2;
57411;PMS5003;43247;52.828;-8.980;2023-02-04T04:24:25;3;3;
57411;PMS5003;43247;52.828;-8.980;2023-02-04T04:25:25;2;2;
57411;PMS5003;43247;52.828;-8.980;2023-02-04T04:26:25;4;3;
57411;PMS5003;43247;52.828;-8.980;2023-02-04T04:27:25;1;1;
57411;PMS5003;43247;52.828;-8.980;2023-02-04T04:28:25;3;3;
57411;PMS5003;43247;52.828;-8.980;2023-02-04T04:29:26;3;3;
57411;PMS5003;43247;52.828;-8.980;2023-02-04T04:30:26;2;2;
57411;PMS5003;43247;52.828;-8.980;2023-02-04T04:31:26;2;2;
57411;PMS5003;43247;52.828;-8.980;2023-02-04T04:32:26;2;2;
57411;PMS5003;43247;52.828;-8.980;2023-02-04T04:33:26;4;2;
57411;PMS5003;43247;52.828;-8.980;2023-02-04T04:34:26;4;2;
57411;PMS5003;43247;52.828;-8.980;2023-02-04T04:35:27;3;3;
57411;PMS5003;43247;52.828;-8.980;2023-02-04T04:36:27;3;2;
57411;PMS5003;43247;52.828;-8.980;2023-02-04T04:37:27;3;2;
57411;PMS5003;43247;52.828;-8.980;2023-02-04T04:38:27;1;1;
57411;PMS5003;43247;52.828;-8.980;2023-02-04T04:39:27;2;2;
57411;PMS5003;43247;52.828;-8.980;2023-02-04T04:40:28;4;3;
57411;PMS5003;43247;52.828;-8.980;2023-02-04T04:41:28;2;2;
57411;PMS5003;43247;52.828;-8.980;2023-02-04T04:42:28;2;2;
57411;PMS5003;43247;52.828;-8.980;2023-02-04T04:43:28;2;2;
57411;PMS5003;43247;52.828;-8.980;2023-02-04T04:44:28;2;2;
57411;PMS5003;43247;52.828;-8.980;2023-02-04T04:45:28;3;2;
57411;PMS5003;43247;52.828;-8.980;2023-02-04T04:46:29;2;2;
57411;PMS5003;43247;52.828;-8.980;2023-02-04T04:47:29;3;3;
57411;PMS5003;43247;52.828;-8.980;2023-02-04T04:48:29;1;1;
57411;PMS5003;43247;52.828;-8.980;2023-02-04T04:49:29;3;2;
57411;PMS5003;43247;52.828;-8.980;2023-02-04T04:50:29;4;4;
57411;PMS5003;43247;52.828;-8.980;2023-02-04T04:51:29;3;2;
57411;PMS5003;43247;52.828;-8.980;2023-02-04T04:52:30;3;3;
57411;PMS5003;43247;52.828;-8.980;2023-02-04T04:53:30;1;1;
57411;PMS5003;43247;52.828;-8.980;2023-02-04T04:54:30;3;3;
57411;PMS5003;43247;52.828;-8.980;2023-02-04T04:55:30;3;3;
57411;PMS5003;43247;52.828;-8.980;2023-02-04T04:56:30;3;3;
57411;PMS5003;43247;52.828;-8.980;2023-02-04T04:57:31;2;2;
57411;PMS5003;43247;52.828;-8.980;2023-02-04T04:58:31;2;2;
57411;PMS5003;43247;52.828;-8.980;2023-02-04T04:59:31;2;2;
57411;PMS5003;43247;52.828;-8.980;2023-02-04T05:00:31;3;3;
57411;PMS5003;43247;52.828;-8.980;2023-02-04T05:01:31;1;1;
57411;PMS5003;43247;52.828;-8.980;2023-02-04T05:02:32;3;3;
57411;PMS5003;43247;52.828;-8.980;2023-02-04T05:03:32;3;1;
57411;PMS5003;43247;52.828;-8.980;2023-02-04T05:04:32;2;2;
57411;PMS5003;43247;52.828;-8.980;2023-02-04T05:05:33;1;1;
57411;PMS5003;43247;52.828;-8.980;2023-02-04T05:06:33;2;2;
57411;PMS5003;43247;52.828;-8.980;2023-02-04T05:07:33;2;2;
57411;PMS5003;43247;52.828;-8.980;2023-02-04T05:08:34;3;2;
57411;PMS5003;43247;52.828;-8.980;2023-02-04T05:09:34;2;2;
57411;PMS5003;43247;52.828;-8.980;2023-02-04T05:10:34;2;2;
57411;PMS5003;43247;52.828;-8.980;2023-02-04T05:11:34;3;3;
57411;PMS5003;43247;52.828;-8.980;2023-02-04T05:12:34;6;3;
57411;PMS5003;43247;52.828;-8.980;2023-02-04T05:13:35;1;1;
57411;PMS5003;43247;52.828;-8.980;2023-02-04T05:14:35;2;2;
57411;PMS5003;43247;52.828;-8.980;2023-02-04T05:15:35;1;1;
57411;PMS5003;43247;52.828;-8.980;2023-02-04T05:16:35;2;2;
57411;PMS5003;43247;52.828;-8.980;2023-02-04T05:17:35;1;1;
57411;PMS5003;43247;52.828;-8.980;2023-02-04T05:18:35;3;3;
57411;PMS5003;43247;52.828;-8.980;2023-02-04T05:19:36;2;2;
57411;PMS5003;43247;52.828;-8.980;2023-02-04T05:20:36;2;2;
57411;PMS5003;43247;52.828;-8.980;2023-02-04T05:21:36;3;2;
57411;PMS5003;43247;52.828;-8.980;2023-02-04T05:22:36;2;2;
57411;PMS5003;43247;52.828;-8.980;2023-02-04T05:23:36;1;1;
57411;PMS5003;43247;52.828;-8.980;2023-02-04T05:24:37;3;3;
57411;PMS5003;43247;52.828;-8.980;2023-02-04T05:25:37;1;1;
57411;PMS5003;43247;52.828;-8.980;2023-02-04T05:26:37;3;2;
57411;PMS5003;43247;52.828;-8.980;2023-02-04T05:27:37;2;2;
57411;PMS5003;43247;52.828;-8.980;2023-02-04T05:28:38;3;2;
57411;PMS5003;43247;52.828;-8.980;2023-02-04T05:29:38;4;2;
57411;PMS5003;43247;52.828;-8.980;2023-02-04T05:30:38;2;2;
57411;PMS5003;43247;52.828;-8.980;2023-02-04T05:31:38;3;3;
57411;PMS5003;43247;52.828;-8.980;2023-02-04T05:32:38;5;2;
57411;PMS5003;43247;52.828;-8.980;2023-02-04T05:33:39;5;2;
57411;PMS5003;43247;52.828;-8.980;2023-02-04T05:34:39;1;1;
57411;PMS5003;43247;52.828;-8.980;2023-02-04T05:35:39;3;3;
57411;PMS5003;43247;52.828;-8.980;2023-02-04T05:36:40;3;3;
57411;PMS5003;43247;52.828;-8.980;2023-02-04T05:37:40;4;4;
57411;PMS5003;43247;52.828;-8.980;2023-02-04T05:38:40;3;3;
57411;PMS5003;43247;52.828;-8.980;2023-02-04T05:39:40;1;1;
57411;PMS5003;43247;52.828;-8.980;2023-02-04T05:40:40;2;2;
57411;PMS5003;43247;52.828;-8.980;2023-02-04T05:41:41;3;3;
57411;PMS5003;43247;52.828;-8.980;2023-02-04T05:42:41;3;2;
57411;PMS5003;43247;52.828;-8.980;2023-02-04T05:43:41;5;2;
57411;PMS5003;43247;52.828;-8.980;2023-02-04T05:44:41;1;1;
57411;PMS5003;43247;52.828;-8.980;2023-02-04T05:45:41;2;2;
57411;PMS5003;43247;52.828;-8.980;2023-02-04T05:46:42;2;2;
57411;PMS5003;43247;52.828;-8.980;2023-02-04T05:47:42;3;3;
57411;PMS5003;43247;52.828;-8.980;2023-02-04T05:48:42;3;3;
57411;PMS5003;43247;52.828;-8.980;2023-02-04T05:49:42;4;2;
57411;PMS5003;43247;52.828;-8.980;2023-02-04T05:50:42;3;3;
57411;PMS5003;43247;52.828;-8.980;2023-02-04T05:51:42;1;1;
57411;PMS5003;43247;52.828;-8.980;2023-02-04T05:52:43;2;2;
57411;PMS5003;43247;52.828;-8.980;2023-02-04T05:53:43;2;2;
57411;PMS5003;43247;52.828;-8.980;2023-02-04T05:54:43;2;2;
57411;PMS5003;43247;52.828;-8.980;2023-02-04T05:55:43;3;3;
57411;PMS5003;43247;52.828;-8.980;2023-02-04T05:56:43;2;2;
57411;PMS5003;43247;52.828;-8.980;2023-02-04T05:57:43;2;2;
57411;PMS5003;43247;52.828;-8.980;2023-02-04T05:58:44;4;3;
57411;PMS5003;43247;52.828;-8.980;2023-02-04T05:59:44;2;2;
57411;PMS5003;43247;52.828;-8.980;2023-02-04T06:00:44;2;2;
57411;PMS5003;43247;52.828;-8.980;2023-02-04T06:01:44;3;3;
57411;PMS5003;43247;52.828;-8.980;2023-02-04T06:02:44;3;3;
57411;PMS5003;43247;52.828;-8.980;2023-02-04T06:03:45;2;2;
57411;PMS5003;43247;52.828;-8.980;2023-02-04T06:04:45;1;1;
57411;PMS5003;43247;52.828;-8.980;2023-02-04T06:05:45;3;3;
57411;PMS5003;43247;52.828;-8.980;2023-02-04T06:06:45;3;3;
57411;PMS5003;43247;52.828;-8.980;2023-02-04T06:07:45;3;2;
57411;PMS5003;43247;52.828;-8.980;2023-02-04T06:08:45;2;2;
57411;PMS5003;43247;52.828;-8.980;2023-02-04T06:09:46;4;3;
57411;PMS5003;43247;52.828;-8.980;2023-02-04T06:10:46;0;0;
57411;PMS5003;43247;52.828;-8.980;2023-02-04T06:11:46;3;3;
57411;PMS5003;43247;52.828;-8.980;2023-02-04T06:12:46;4;2;
57411;PMS5003;43247;52.828;-8.980;2023-02-04T06:13:46;5;4;
57411;PMS5003;43247;52.828;-8.980;2023-02-04T06:14:47;2;2;
57411;PMS5003;43247;52.828;-8.980;2023-02-04T06:15:47;3;3;
57411;PMS5003;43247;52.828;-8.980;2023-02-04T06:16:47;4;4;
57411;PMS5003;43247;52.828;-8.980;2023-02-04T06:17:47;2;2;
57411;PMS5003;43247;52.828;-8.980;2023-02-04T06:18:47;5;3;
57411;PMS5003;43247;52.828;-8.980;2023-02-04T06:19:48;2;2;
57411;PMS5003;43247;52.828;-8.980;2023-02-04T06:20:48;4;3;
57411;PMS5003;43247;52.828;-8.980;2023-02-04T06:21:48;3;3;
57411;PMS5003;43247;52.828;-8.980;2023-02-04T06:22:48;3;2;
57411;PMS5003;43247;52.828;-8.980;2023-02-04T06:23:48;3;3;
57411;PMS5003;43247;52.828;-8.980;2023-02-04T06:24:48;4;3;
57411;PMS5003;43247;52.828;-8.980;2023-02-04T06:25:49;2;2;
57411;PMS5003;43247;52.828;-8.980;2023-02-04T06:26:49;4;2;
57411;PMS5003;43247;52.828;-8.980;2023-02-04T06:27:49;2;2;
57411;PMS5003;43247;52.828;-8.980;2023-02-04T06:28:49;2;2;
57411;PMS5003;43247;52.828;-8.980;2023-02-04T06:29:50;3;3;
57411;PMS5003;43247;52.828;-8.980;2023-02-04T06:30:50;4;2;
57411;PMS5003;43247;52.828;-8.980;2023-02-04T06:31:50;3;3;
57411;PMS5003;43247;52.828;-8.980;2023-02-04T06:32:50;2;2;
57411;PMS5003;43247;52.828;-8.980;2023-02-04T06:33:50;2;2;
57411;PMS5003;43247;52.828;-8.980;2023-02-04T06:34:50;3;3;
57411;PMS5003;43247;52.828;-8.980;2023-02-04T06:35:51;3;3;
57411;PMS5003;43247;52.828;-8.980;2023-02-04T06:36:51;3;3;
57411;PMS5003;43247;52.828;-8.980;2023-02-04T06:37:51;5;5;
57411;PMS5003;43247;52.828;-8.980;2023-02-04T06:38:52;2;2;
57411;PMS5003;43247;52.828;-8.980;2023-02-04T06:39:52;3;3;
57411;PMS5003;43247;52.828;-8.980;2023-02-04T06:40:52;3;3;
57411;PMS5003;43247;52.828;-8.980;2023-02-04T06:41:52;2;2;
57411;PMS5003;43247;52.828;-8.980;2023-02-04T06:42:52;2;2;
57411;PMS5003;43247;52.828;-8.980;2023-02-04T06:43:52;3;2;
57411;PMS5003;43247;52.828;-8.980;2023-02-04T06:44:53;2;2;
57411;PMS5003;43247;52.828;-8.980;2023-02-04T06:45:53;2;2;
57411;PMS5003;43247;52.828;-8.980;2023-02-04T06:46:53;2;2;